createdAt,value
2018-07-25T00:02:10.601Z,1266.10
2018-07-25T00:04:39.248Z,1271.23
2018-07-25T00:07:09.921Z,1266.60
2018-07-25T00:09:38.554Z,1265.35
2018-07-25T00:12:07.292Z,1267.35
2018-07-25T00:14:35.896Z,1267.60
2018-07-25T00:17:04.599Z,1261.20
2018-07-25T00:19:33.395Z,1262.35
2018-07-25T00:22:02.120Z,1260.40
2018-07-25T00:24:30.857Z,1254.90
2018-07-25T00:26:59.509Z,1261.08
2018-07-25T00:29:28.262Z,1252.95
2018-07-25T00:31:57.685Z,1259.08
2018-07-25T00:34:27.440Z,1253.05
2018-07-25T00:36:57.917Z,1252.40
2018-07-25T00:39:27.650Z,1252.10
2018-07-25T00:41:56.365Z,1255.98
2018-07-25T00:44:25.560Z,1246.30
2018-07-25T00:46:55.008Z,1250.80
2018-07-25T00:49:25.288Z,1251.17
2018-07-25T00:51:54.016Z,1246.75
2018-07-25T00:54:22.692Z,1243.30
2018-07-25T00:56:51.432Z,1243.67
2018-07-25T00:59:20.081Z,1239.85
2018-07-25T01:01:48.879Z,1245.38
2018-07-25T01:04:18.585Z,1247.38
2018-07-25T01:06:47.315Z,1240.43
2018-07-25T01:09:18.032Z,1244.65
2018-07-25T01:11:47.264Z,1249.83
2018-07-25T01:14:15.946Z,1243.93
2018-07-25T01:16:44.564Z,1248.53
2018-07-25T01:19:14.223Z,1242.93
2018-07-25T01:21:42.979Z,1247.47
2018-07-25T01:24:11.643Z,1242.90
2018-07-25T01:26:40.449Z,1245.25
2018-07-25T01:29:10.146Z,1256.48
2018-07-25T01:31:38.841Z,1251.13
2018-07-25T01:34:07.554Z,1244.47
2018-07-25T01:36:36.340Z,1249.47
2018-07-25T01:39:09.807Z,1252.75
2018-07-25T01:41:38.655Z,1243.50
2018-07-25T01:44:07.871Z,1243.73
2018-07-25T01:46:36.546Z,1244.97
2018-07-25T01:49:05.414Z,1245.95
2018-07-25T01:51:34.198Z,1238.10
2018-07-25T01:54:02.873Z,1237.97
2018-07-25T01:56:31.564Z,1244.20
2018-07-25T01:59:02.324Z,1239.10
2018-07-25T02:01:31.001Z,1227.55
2018-07-25T02:03:59.759Z,1240.48
2018-07-25T02:06:28.491Z,1231.72
2018-07-25T02:08:57.511Z,1240.48
2018-07-25T02:11:27.134Z,1224.78
2018-07-25T02:13:55.856Z,1226.88
2018-07-25T02:16:24.534Z,1227.45
2018-07-25T02:18:53.200Z,1233.40
2018-07-25T02:21:21.881Z,1230.83
2018-07-25T02:23:51.690Z,1222.13
2018-07-25T02:26:20.495Z,1222.20
2018-07-25T02:28:49.137Z,1227.78
2018-07-25T02:31:18.583Z,1220.83
2018-07-25T02:33:52.654Z,1224.60
2018-07-25T02:36:22.303Z,1220.20
2018-07-25T02:38:50.924Z,1217.75
2018-07-25T02:41:20.156Z,1227.75
2018-07-25T02:43:49.044Z,1225.28
2018-07-25T02:46:17.717Z,1221.72
2018-07-25T02:48:45.989Z,1230.88
2018-07-25T02:51:14.288Z,1215.98
2018-07-25T02:53:47.193Z,1221.20
2018-07-25T02:56:15.894Z,1221.23
2018-07-25T02:58:44.606Z,1227.40
2018-07-25T03:01:13.269Z,1221.33
2018-07-25T03:03:42.072Z,1216.13
2018-07-25T03:06:10.790Z,1219.50
2018-07-25T03:08:39.589Z,1216.17
2018-07-25T03:11:08.925Z,1224.28
2018-07-25T03:13:37.631Z,1216.40
2018-07-25T03:16:07.432Z,1207.80
2018-07-25T03:18:36.475Z,1211.57
2018-07-25T03:21:05.374Z,1213.95
2018-07-25T03:23:36.115Z,1214.88
2018-07-25T03:26:05.829Z,1210.75
2018-07-25T03:28:34.553Z,1205.63
2018-07-25T03:31:03.248Z,1198.60
2018-07-25T03:33:31.866Z,1213.83
2018-07-25T03:36:01.064Z,1208.63
2018-07-25T03:38:29.885Z,1209.33
2018-07-25T03:40:58.594Z,1211.40
2018-07-25T03:43:27.400Z,1209.72
2018-07-25T03:45:56.016Z,1213.47
2018-07-25T03:48:24.657Z,1206.20
2018-07-25T03:50:53.441Z,1208.28
2018-07-25T03:53:22.267Z,1188.10
2018-07-25T03:55:50.964Z,1195.42
2018-07-25T03:58:19.816Z,1191.33
2018-07-25T04:00:48.572Z,1201.13
2018-07-25T04:03:16.836Z,1186.88
2018-07-25T04:05:45.522Z,1194.30
2018-07-25T04:08:14.214Z,1195.28
2018-07-25T04:10:47.391Z,1194.43
2018-07-25T04:13:16.577Z,1198.00
2018-07-25T04:15:45.327Z,1190.08
2018-07-25T04:18:15.037Z,1190.20
2018-07-25T04:20:43.795Z,1202.18
2018-07-25T04:23:12.450Z,1201.68
2018-07-25T04:25:41.137Z,1202.53
2018-07-25T04:28:09.852Z,1205.78
2018-07-25T04:30:38.708Z,1220.47
2018-07-25T04:33:07.388Z,1234.53
2018-07-25T04:35:36.050Z,1241.00
2018-07-25T04:38:04.775Z,1270.83
2018-07-25T04:40:33.509Z,1284.23
2018-07-25T04:43:02.249Z,1300.05
2018-07-25T04:45:30.894Z,1307.50
2018-07-25T04:47:59.705Z,1318.80
2018-07-25T04:50:29.395Z,1326.97
2018-07-25T04:52:58.142Z,1325.53
2018-07-25T04:55:27.739Z,1333.03
2018-07-25T04:57:56.385Z,1336.25
2018-07-25T05:00:26.082Z,1342.80
2018-07-25T05:02:54.815Z,1350.30
2018-07-25T05:05:23.458Z,1359.40
2018-07-25T05:07:52.212Z,1370.68
2018-07-25T05:10:21.897Z,1384.50
2018-07-25T05:12:50.588Z,1395.33
2018-07-25T05:15:20.322Z,1408.47
2018-07-25T05:17:49.174Z,1413.87
2018-07-25T05:20:17.807Z,1422.38
2018-07-25T05:22:46.543Z,1425.53
2018-07-25T05:25:15.232Z,1431.45
2018-07-25T05:27:43.972Z,1434.38
2018-07-25T05:30:12.637Z,1443.72
2018-07-25T05:32:41.298Z,1444.08
2018-07-25T05:35:10.036Z,1448.38
2018-07-25T05:37:38.803Z,1447.68
2018-07-25T05:40:08.556Z,1443.65
2018-07-25T05:42:37.191Z,1441.72
2018-07-25T05:45:06.279Z,1435.50
2018-07-25T05:49:19.030Z,1425.30
2018-07-25T05:51:47.639Z,1420.43
2018-07-25T05:54:15.969Z,1413.25
2018-07-25T05:56:44.573Z,1399.33
2018-07-25T05:59:13.244Z,1395.80
2018-07-25T06:01:41.930Z,1389.53
2018-07-25T06:04:11.689Z,1379.97
2018-07-25T06:06:40.396Z,1377.73
2018-07-25T06:09:10.826Z,1376.75
2018-07-25T06:11:40.633Z,1365.88
2018-07-25T06:14:10.323Z,1361.40
2018-07-25T06:16:39.120Z,1354.20
2018-07-25T06:19:07.811Z,1353.18
2018-07-25T06:21:36.590Z,1351.45
2018-07-25T06:24:05.278Z,1345.13
2018-07-25T06:26:34.093Z,1339.88
2018-07-25T06:29:02.779Z,1344.55
2018-07-25T06:31:31.503Z,1339.18
2018-07-25T06:34:00.225Z,1339.03
2018-07-25T06:36:28.979Z,1338.50
2018-07-25T06:38:57.758Z,1352.95
2018-07-25T06:41:26.488Z,1367.38
2018-07-25T06:43:55.162Z,1374.65
2018-07-25T06:46:23.805Z,1381.77
2018-07-25T06:48:52.421Z,1395.88
2018-07-25T06:51:21.173Z,1406.60
2018-07-25T06:53:49.821Z,1420.05
2018-07-25T06:56:18.505Z,1425.05
2018-07-25T06:58:47.207Z,1430.25
2018-07-25T07:01:16.048Z,1431.25
2018-07-25T07:03:44.915Z,1436.03
2018-07-25T07:06:13.546Z,1436.63
2018-07-25T07:08:42.244Z,1436.18
2018-07-25T07:11:10.949Z,1435.15
2018-07-25T07:13:39.582Z,1432.75
2018-07-25T07:16:09.911Z,1426.15
2018-07-25T07:18:38.694Z,1416.50
2018-07-25T07:21:07.455Z,1412.43
2018-07-25T07:23:37.072Z,1408.08
2018-07-25T07:26:05.894Z,1404.13
2018-07-25T07:28:34.612Z,1398.30
2018-07-25T07:31:03.219Z,1398.88
2018-07-25T07:33:32.247Z,1392.78
2018-07-25T07:36:00.959Z,1392.20
2018-07-25T07:38:29.608Z,1386.90
2018-07-25T07:40:58.258Z,1386.95
2018-07-25T07:43:27.012Z,1375.25
2018-07-25T07:45:55.626Z,1379.33
2018-07-25T07:48:23.969Z,1218.97
2018-07-25T07:50:52.678Z,1272.80
2018-07-25T07:53:21.341Z,1038.88
2018-07-25T07:55:49.750Z,1023.53
2018-07-25T07:58:18.811Z,1091.67
2018-07-25T08:00:47.684Z,1104.17
2018-07-25T08:03:16.328Z,1095.70
2018-07-25T08:05:45.766Z,1126.23
2018-07-25T08:08:14.514Z,1183.60
2018-07-25T08:10:43.250Z,1110.23
2018-07-25T08:13:11.907Z,1103.43
2018-07-25T08:15:40.511Z,1162.85
2018-07-25T08:18:09.627Z,1200.50
2018-07-25T08:20:38.348Z,1138.95
2018-07-25T08:23:07.100Z,1177.57
2018-07-25T08:25:36.974Z,1245.92
2018-07-25T08:28:05.636Z,1278.83
2018-07-25T08:30:34.313Z,1299.55
2018-07-25T08:33:03.061Z,1293.25
2018-07-25T08:35:31.742Z,1324.00
2018-07-25T08:38:00.501Z,1344.33
2018-07-25T08:40:29.321Z,1358.75
2018-07-25T08:42:58.001Z,1323.45
2018-07-25T08:45:26.656Z,1309.35
2018-07-25T08:47:55.324Z,1392.13
2018-07-25T08:50:23.926Z,1211.23
2018-07-25T08:52:52.666Z,1323.85
2018-07-25T08:55:21.337Z,1255.05
2018-07-25T08:57:50.014Z,1303.35
2018-07-25T09:00:20.284Z,1265.15
2018-07-25T09:02:48.900Z,1391.83
2018-07-25T09:05:18.600Z,1391.40
2018-07-25T09:07:48.295Z,1394.13
2018-07-25T09:10:17.132Z,1391.93
2018-07-25T09:12:45.603Z,1395.43
2018-07-25T09:15:14.217Z,1387.60
2018-07-25T09:17:42.856Z,776.50
2018-07-25T09:20:11.502Z,874.05
2018-07-25T09:22:40.159Z,789.92
2018-07-25T09:25:10.924Z,809.60
2018-07-25T09:27:39.698Z,757.35
2018-07-25T09:30:08.411Z,803.15
2018-07-25T09:32:36.665Z,722.98
2018-07-25T09:35:05.321Z,735.27
2018-07-25T09:37:34.042Z,694.92
2018-07-25T09:40:02.730Z,755.95
2018-07-25T09:42:31.537Z,767.65
2018-07-25T09:45:00.385Z,781.35
2018-07-25T09:47:29.081Z,791.95
2018-07-25T09:49:57.905Z,804.03
2018-07-25T09:52:26.632Z,818.92
2018-07-25T09:54:55.640Z,812.92
2018-07-25T09:57:24.346Z,792.77
2018-07-25T09:59:54.067Z,820.50
2018-07-25T10:02:22.912Z,809.70
2018-07-25T10:04:51.615Z,785.85
2018-07-25T10:07:20.450Z,752.02
2018-07-25T10:09:49.138Z,768.30
2018-07-25T10:12:18.527Z,771.87
2018-07-25T10:14:47.469Z,751.02
2018-07-25T10:17:16.149Z,822.48
2018-07-25T10:19:45.853Z,809.20
2018-07-25T10:22:14.625Z,832.47
2018-07-25T10:24:43.517Z,785.73
2018-07-25T10:27:12.247Z,786.67
2018-07-25T10:29:41.030Z,812.67
2018-07-25T10:32:09.742Z,771.45
2018-07-25T10:34:38.466Z,737.80
2018-07-25T10:37:09.221Z,762.70
2018-07-25T10:39:38.055Z,830.83
2018-07-25T10:42:06.719Z,789.25
2018-07-25T10:44:35.386Z,750.50
2018-07-25T10:47:04.216Z,751.67
2018-07-25T10:49:32.907Z,736.60
2018-07-25T10:52:01.619Z,841.90
2018-07-25T10:54:30.352Z,829.10
2018-07-25T10:56:59.063Z,815.92
2018-07-25T10:59:27.773Z,835.40
2018-07-25T11:01:56.563Z,860.00
2018-07-25T11:04:25.263Z,891.25
2018-07-25T11:06:54.018Z,689.00
2018-07-25T11:09:22.927Z,780.95
2018-07-25T11:11:51.628Z,784.80
2018-07-25T11:14:20.314Z,831.80
2018-07-25T11:16:49.195Z,749.73
2018-07-25T11:19:18.001Z,559.98
2018-07-25T11:21:46.809Z,659.27
2018-07-25T11:24:15.573Z,603.02
2018-07-25T11:26:44.316Z,483.97
2018-07-25T11:29:13.642Z,572.90
2018-07-25T11:31:42.443Z,482.17
2018-07-25T11:34:11.184Z,450.48
2018-07-25T11:36:39.884Z,433.48
2018-07-25T11:39:11.122Z,404.40
2018-07-25T11:41:39.869Z,381.50
2018-07-25T11:44:08.623Z,439.87
2018-07-25T11:46:37.355Z,434.77
2018-07-25T11:49:06.358Z,436.17
2018-07-25T11:51:35.169Z,439.10
2018-07-25T11:54:04.562Z,434.48
2018-07-25T11:56:33.286Z,419.70
2018-07-25T11:59:02.182Z,391.50
2018-07-25T12:01:31.875Z,388.40
2018-07-25T12:04:00.555Z,404.65
2018-07-25T12:06:29.311Z,366.00
2018-07-25T12:08:58.092Z,356.00
2018-07-25T12:11:26.941Z,348.82
2018-07-25T12:13:55.911Z,327.02
2018-07-25T12:16:24.704Z,314.93
2018-07-25T12:18:53.510Z,345.10
2018-07-25T12:21:22.356Z,335.10
2018-07-25T12:23:51.051Z,335.20
2018-07-25T12:26:20.769Z,323.10
2018-07-25T12:28:49.465Z,310.88
2018-07-25T12:31:18.309Z,312.03
2018-07-25T12:33:47.035Z,302.82
2018-07-25T12:36:15.732Z,323.73
2018-07-25T12:38:44.580Z,309.95
2018-07-25T12:41:13.306Z,334.00
2018-07-25T12:43:42.085Z,332.30
2018-07-25T12:46:10.800Z,292.18
2018-07-25T12:48:39.783Z,301.83
2018-07-25T12:51:09.332Z,332.18
2018-07-25T12:53:40.420Z,303.73
2018-07-25T12:56:11.148Z,340.32
2018-07-25T12:58:40.337Z,322.20
2018-07-25T13:01:09.106Z,332.90
2018-07-25T13:03:39.047Z,384.55
2018-07-25T13:06:07.899Z,356.68
2018-07-25T13:08:36.646Z,338.45
2018-07-25T13:11:05.481Z,330.83
2018-07-25T13:13:34.221Z,326.95
2018-07-25T13:16:02.976Z,320.88
2018-07-25T13:18:31.725Z,307.90
2018-07-25T13:21:02.496Z,333.17
2018-07-25T13:23:31.251Z,293.70
2018-07-25T13:26:00.115Z,266.57
2018-07-25T13:28:28.916Z,298.20
2018-07-25T13:30:57.677Z,298.90
2018-07-25T13:33:26.435Z,269.48
2018-07-25T13:35:56.217Z,296.98
2018-07-25T13:38:24.964Z,274.52
2018-07-25T13:40:54.793Z,251.00
2018-07-25T13:43:23.625Z,264.65
2018-07-25T13:45:52.455Z,226.73
2018-07-25T13:48:21.243Z,238.97
2018-07-25T13:50:53.839Z,234.83
2018-07-25T13:53:22.585Z,250.65
2018-07-25T13:55:51.359Z,251.33
2018-07-25T13:58:20.075Z,294.90
2018-07-25T14:00:48.837Z,291.85
2018-07-25T14:03:17.604Z,294.67
2018-07-25T14:05:46.381Z,308.40
2018-07-25T14:08:15.203Z,300.20
2018-07-25T14:10:43.987Z,284.50
2018-07-25T14:13:12.700Z,303.40
2018-07-25T14:15:41.463Z,284.13
2018-07-25T14:18:10.269Z,266.80
2018-07-25T14:20:39.198Z,276.05
2018-07-25T14:23:07.999Z,276.70
2018-07-25T14:25:36.706Z,278.20
2018-07-25T14:28:05.630Z,286.73
2018-07-25T14:30:34.365Z,304.05
2018-07-25T14:33:03.070Z,310.77
2018-07-25T14:35:32.155Z,332.10
2018-07-25T14:38:00.942Z,318.63
2018-07-25T14:40:29.747Z,363.23
2018-07-25T14:42:58.390Z,376.07
2018-07-25T14:45:27.181Z,401.02
2018-07-25T14:47:56.211Z,402.70
2018-07-25T14:50:25.601Z,435.27
2018-07-25T14:52:54.359Z,444.83
2018-07-25T14:55:23.075Z,338.60
2018-07-25T14:57:51.842Z,317.65
2018-07-25T15:00:20.654Z,292.77
2018-07-25T15:02:49.417Z,255.62
2018-07-25T15:05:18.175Z,288.13
2018-07-25T15:07:46.919Z,294.40
2018-07-25T15:10:15.793Z,304.33
2018-07-25T15:12:49.686Z,295.20
2018-07-25T15:15:18.433Z,278.62
2018-07-25T15:17:47.434Z,304.73
2018-07-25T15:20:16.202Z,338.02
2018-07-25T15:22:44.633Z,417.50
2018-07-25T15:25:13.307Z,412.07
2018-07-25T15:27:42.086Z,445.10
2018-07-25T15:30:11.479Z,495.32
2018-07-25T15:32:40.543Z,409.13
2018-07-25T15:35:10.935Z,404.42
2018-07-25T15:37:40.016Z,416.45
2018-07-25T15:40:09.179Z,419.28
2018-07-25T15:42:37.894Z,424.90
2018-07-25T15:45:06.966Z,350.05
2018-07-25T15:47:35.773Z,334.43
2018-07-25T15:50:05.227Z,295.27
2018-07-25T15:52:34.021Z,270.95
2018-07-25T15:55:02.818Z,268.88
2018-07-25T15:57:34.699Z,249.77
2018-07-25T16:00:03.462Z,247.52
2018-07-25T16:02:32.159Z,299.90
2018-07-25T16:05:00.847Z,314.80
2018-07-25T16:07:29.559Z,292.27
2018-07-25T16:09:58.263Z,288.85
2018-07-25T16:12:27.013Z,285.70
2018-07-25T16:14:55.755Z,267.80
2018-07-25T16:17:24.424Z,247.70
2018-07-25T16:19:55.156Z,231.47
2018-07-25T16:22:23.838Z,177.02
2018-07-25T16:24:52.586Z,149.90
2018-07-25T16:27:21.256Z,143.30
2018-07-25T16:29:50.091Z,129.20
2018-07-25T16:32:18.934Z,131.43
2018-07-25T16:34:47.681Z,125.82
2018-07-25T16:37:16.359Z,119.43
2018-07-25T16:39:45.050Z,129.23
2018-07-25T16:42:13.854Z,131.10
2018-07-25T16:44:42.464Z,120.17
2018-07-25T16:47:11.204Z,126.50
2018-07-25T16:49:39.926Z,128.67
2018-07-25T16:52:08.721Z,167.90
2018-07-25T16:54:38.535Z,172.87
2018-07-25T16:57:07.321Z,161.40
2018-07-25T16:59:36.997Z,148.80
2018-07-25T17:02:05.712Z,151.85
2018-07-25T17:04:35.379Z,161.05
2018-07-25T17:07:04.165Z,173.60
2018-07-25T17:09:32.816Z,180.50
2018-07-25T17:12:01.537Z,166.07
2018-07-25T17:14:30.205Z,183.50
2018-07-25T17:16:59.637Z,193.07
2018-07-25T17:19:29.419Z,215.60
2018-07-25T17:22:00.138Z,229.30
2018-07-25T17:24:29.875Z,264.42
2018-07-25T17:26:58.565Z,266.25
2018-07-25T17:29:27.439Z,323.93
2018-07-25T17:31:57.294Z,398.62
2018-07-25T17:34:26.051Z,384.05
2018-07-25T17:36:55.127Z,463.22
2018-07-25T17:39:24.071Z,355.87
2018-07-25T17:41:52.761Z,340.68
2018-07-25T17:44:21.554Z,315.17
2018-07-25T17:46:50.315Z,276.32
2018-07-25T17:49:18.972Z,306.93
2018-07-25T17:51:47.756Z,276.82
2018-07-25T17:54:16.563Z,282.70
2018-07-25T17:56:45.223Z,241.63
2018-07-25T17:59:13.815Z,250.38
2018-07-25T18:01:42.548Z,244.73
2018-07-25T18:04:11.324Z,236.30
2018-07-25T18:06:39.964Z,257.53
2018-07-25T18:09:09.982Z,251.98
2018-07-25T18:11:38.679Z,236.05
2018-07-25T18:14:12.254Z,252.93
2018-07-25T18:16:42.686Z,244.40
2018-07-25T18:19:11.671Z,262.27
2018-07-25T18:21:40.813Z,264.88
2018-07-25T18:24:09.727Z,285.68
2018-07-25T18:26:38.461Z,265.27
2018-07-25T18:29:07.389Z,263.40
2018-07-25T18:31:36.094Z,280.60
2018-07-25T18:34:04.926Z,268.57
2018-07-25T18:36:34.682Z,264.23
2018-07-25T18:39:08.219Z,259.40
2018-07-25T18:41:37.202Z,277.55
2018-07-25T18:44:10.591Z,292.50
2018-07-25T18:46:39.387Z,295.42
2018-07-25T18:49:08.094Z,268.80
2018-07-25T18:51:40.050Z,262.55
2018-07-25T18:54:09.160Z,243.30
2018-07-25T18:56:38.331Z,227.53
2018-07-25T18:59:08.506Z,241.70
2018-07-25T19:01:39.251Z,284.27
2018-07-25T19:04:08.085Z,270.65
2018-07-25T19:06:36.817Z,259.83
2018-07-25T19:09:11.136Z,268.37
2018-07-25T19:11:39.700Z,257.00
2018-07-25T19:14:17.970Z,266.98
2018-07-25T19:16:46.830Z,279.07
2018-07-25T19:19:17.955Z,304.05
2018-07-25T19:21:47.773Z,287.70
2018-07-25T19:24:16.477Z,299.55
2018-07-25T19:26:45.083Z,291.73
2018-07-25T19:29:14.033Z,341.77
2018-07-25T19:31:43.012Z,318.90
2018-07-25T19:34:12.740Z,334.12
2018-07-25T19:36:41.936Z,318.63
2018-07-25T19:39:11.003Z,321.85
2018-07-25T19:41:40.994Z,321.20
2018-07-25T19:44:09.895Z,329.80
2018-07-25T19:46:38.887Z,327.18
2018-07-25T19:49:08.115Z,338.02
2018-07-25T19:51:36.996Z,345.73
2018-07-25T19:54:06.968Z,332.55
2018-07-25T19:56:35.534Z,343.07
2018-07-25T19:59:05.684Z,362.08
2018-07-25T20:01:34.649Z,345.85
2018-07-25T20:04:03.719Z,352.50
2018-07-25T20:06:32.773Z,405.90
2018-07-25T20:09:02.498Z,509.20
2018-07-25T20:11:31.468Z,570.35
2018-07-25T20:14:05.893Z,626.30
2018-07-25T20:16:35.710Z,642.93
2018-07-25T20:19:04.357Z,618.95
2018-07-25T20:21:33.177Z,651.80
2018-07-25T20:24:03.897Z,660.63
2018-07-25T20:26:33.616Z,669.35
2018-07-25T20:29:02.347Z,613.80
2018-07-25T20:31:31.248Z,732.98
2018-07-25T20:34:00.045Z,708.55
2018-07-25T20:36:28.793Z,663.37
2018-07-25T20:38:58.428Z,540.17
2018-07-25T20:41:27.166Z,530.95
2018-07-25T20:43:55.777Z,653.55
2018-07-25T20:46:24.655Z,578.25
2018-07-25T20:48:53.581Z,343.12
2018-07-25T20:51:22.589Z,309.23
2018-07-25T20:53:51.252Z,325.82
2018-07-25T20:56:19.988Z,306.52
2018-07-25T20:58:48.912Z,318.65
2018-07-25T21:01:17.482Z,339.00
2018-07-25T21:03:46.132Z,338.25
2018-07-25T21:06:14.990Z,343.25
2018-07-25T21:08:43.672Z,352.35
2018-07-25T21:11:12.352Z,326.47
2018-07-25T21:13:41.009Z,321.87
2018-07-25T21:16:10.745Z,329.52
2018-07-25T21:18:39.370Z,313.07
2018-07-25T21:21:08.090Z,360.52
2018-07-25T21:23:36.670Z,320.07
2018-07-25T21:26:06.236Z,325.15
2018-07-25T21:28:34.865Z,298.32
2018-07-25T21:31:03.574Z,302.32
2018-07-25T21:33:32.230Z,285.25
2018-07-25T21:36:00.956Z,303.25
2018-07-25T21:38:29.610Z,293.73
2018-07-25T21:40:58.254Z,295.12
2018-07-25T21:43:27.102Z,310.27
2018-07-25T21:45:55.834Z,337.65
2018-07-25T21:48:24.507Z,340.45
2018-07-25T21:50:53.297Z,349.27
2018-07-25T21:53:21.901Z,350.20
2018-07-25T21:55:50.658Z,352.95
2018-07-25T21:58:19.502Z,383.20
2018-07-25T22:00:54.207Z,333.25
2018-07-25T22:03:23.138Z,345.70
2018-07-25T22:05:54.830Z,350.23
2018-07-25T22:08:23.605Z,371.52
2018-07-25T22:10:52.270Z,361.87
2018-07-25T22:13:20.896Z,355.57
2018-07-25T22:15:49.511Z,352.57
2018-07-25T22:18:18.159Z,363.23
2018-07-25T22:20:47.853Z,391.25
2018-07-25T22:23:16.526Z,375.20
2018-07-25T22:25:45.199Z,398.68
2018-07-25T22:28:13.865Z,360.63
2018-07-25T22:30:42.564Z,404.80
2018-07-25T22:33:11.307Z,385.13
2018-07-25T22:35:40.043Z,375.47
2018-07-25T22:38:18.240Z,399.20
2018-07-25T22:40:46.941Z,399.80
2018-07-25T22:43:15.645Z,413.70
2018-07-25T22:45:44.307Z,416.50
2018-07-25T22:48:12.915Z,393.15
2018-07-25T22:50:41.611Z,438.30
2018-07-25T22:53:10.261Z,450.32
2018-07-25T22:55:38.987Z,468.52
2018-07-25T22:58:07.720Z,452.00
2018-07-25T23:00:37.740Z,483.80
2018-07-25T23:03:06.426Z,430.27
2018-07-25T23:05:35.072Z,435.03
2018-07-25T23:08:03.908Z,426.20
2018-07-25T23:10:32.549Z,451.07
2018-07-25T23:13:01.216Z,432.90
2018-07-25T23:15:29.948Z,424.60
2018-07-25T23:17:58.593Z,457.37
2018-07-25T23:20:29.292Z,445.90
2018-07-25T23:23:00.109Z,455.80
2018-07-25T23:25:29.269Z,472.45
2018-07-25T23:27:59.111Z,486.63
2018-07-25T23:30:28.987Z,490.98
2018-07-25T23:32:57.632Z,469.28
2018-07-25T23:35:26.307Z,482.12
2018-07-25T23:37:55.018Z,516.60
2018-07-25T23:40:23.703Z,611.52
2018-07-25T23:42:52.450Z,720.70
2018-07-25T23:45:20.717Z,788.10
2018-07-25T23:47:49.516Z,810.23
2018-07-25T23:50:17.807Z,895.33
2018-07-25T23:52:46.449Z,894.23
2018-07-25T23:55:15.063Z,931.32
2018-07-25T23:57:43.711Z,942.13
